Wetterdaten: aktuell Mittwoch, 12.12.2018 07:10
Datum Zeit Temp. I. Temp. A. Feuchte I. Feuchte A. Luftdruck Regen Wind Richtung Richtung Taupunkt Windchill Windben
12.12.2018 07:10 5,6 C 2,3 C 74 % 85 % 1023,3 hPa 0,0 l/m 6,4 km/h N-NW 337 0,0 C 2,3 C 11,3 km/h
12.12.2018 07:05 5,6 C 2,3 C 74 % 85 % 1023,2 hPa 0,0 l/m 8,0 km/h N-NW 337 0,0 C 0,8 C 12,9 km/h
12.12.2018 07:00 5,6 C 2,3 C 74 % 84 % 1023,2 hPa 0,0 l/m 11,3 km/h N-NW 337 -0,1 C -1,9 C 16,1 km/h
12.12.2018 06:55 5,7 C 2,4 C 74 % 84 % 1023,2 hPa 0,0 l/m 9,7 km/h NW 315 -0,0 C -0,6 C 14,5 km/h
12.12.2018 06:50 5,7 C 2,4 C 73 % 84 % 1023,1 hPa 0,0 l/m 8,0 km/h N-NW 337 -0,0 C 0,9 C 11,3 km/h
12.12.2018 06:45 5,7 C 2,4 C 73 % 83 % 1023,0 hPa 0,0 l/m 8,0 km/h N 360 -0,2 C 0,9 C 12,9 km/h
12.12.2018 06:40 5,7 C 2,4 C 73 % 83 % 1023,1 hPa 0,0 l/m 9,7 km/h N-NW 337 -0,2 C -0,6 C 16,1 km/h
12.12.2018 06:35 5,7 C 2,3 C 74 % 82 % 1023,0 hPa 0,0 l/m 6,4 km/h N 360 -0,4 C 2,3 C 11,3 km/h
12.12.2018 06:30 5,7 C 2,3 C 74 % 84 % 1023,1 hPa 0,0 l/m 6,4 km/h N 360 -0,1 C 2,3 C 11,3 km/h
12.12.2018 06:25 5,7 C 2,2 C 74 % 84 % 1023,0 hPa 0,0 l/m 8,0 km/h N 360 -0,2 C 0,7 C 12,9 km/h
12.12.2018 06:20 5,7 C 2,1 C 75 % 85 % 1023,0 hPa 0,0 l/m 9,7 km/h N 360 -0,2 C -0,9 C 14,5 km/h
12.12.2018 06:15 5,7 C 2,1 C 75 % 88 % 1023,2 hPa 0,0 l/m 8,0 km/h N-NO 22 0,3 C 0,6 C 12,9 km/h
12.12.2018 06:10 5,8 C 2,1 C 75 % 88 % 1023,1 hPa 0,0 l/m 11,3 km/h N-NO 22 0,3 C -2,1 C 14,5 km/h
12.12.2018 06:05 5,8 C 2,1 C 76 % 88 % 1023,1 hPa 0,0 l/m 11,3 km/h N-NO 22 0,3 C -2,1 C 16,1 km/h
12.12.2018 06:00 5,8 C 2,1 C 76 % 89 % 1023,0 hPa 0,0 l/m 3,2 km/h O-NO 67 0,5 C 2,1 C 6,4 km/h
12.12.2018 05:55 5,7 C 2,1 C 76 % 89 % 1023,0 hPa 0,0 l/m 1,6 km/h O-NO 67 0,5 C 2,1 C 3,2 km/h
12.12.2018 05:50 5,7 C 2,1 C 76 % 89 % 1023,0 hPa 0,0 l/m 1,6 km/h O-NO 67 0,5 C 2,1 C 4,8 km/h
12.12.2018 05:45 5,8 C 2,1 C 76 % 89 % 1023,1 hPa 0,0 l/m 4,8 km/h O-NO 67 0,5 C 2,1 C 8,0 km/h
12.12.2018 05:40 5,8 C 2,1 C 76 % 89 % 1023,1 hPa 0,0 l/m 6,4 km/h O 90 0,5 C 2,1 C 11,3 km/h
12.12.2018 05:35 5,8 C 2,2 C 76 % 89 % 1022,9 hPa 0,0 l/m 8,0 km/h O-NO 67 0,6 C 0,7 C 12,9 km/h
12.12.2018 05:30 5,8 C 2,2 C 76 % 88 % 1023,0 hPa 0,0 l/m 8,0 km/h O-NO 67 0,4 C 0,7 C 11,3 km/h
12.12.2018 05:25 5,8 C 2,2 C 76 % 89 % 1023,0 hPa 0,0 l/m 8,0 km/h O-NO 67 0,6 C 0,7 C 12,9 km/h
12.12.2018 05:20 5,8 C 2,1 C 76 % 90 % 1022,9 hPa 0,0 l/m 6,4 km/h O-NO 67 0,6 C 2,1 C 11,3 km/h
12.12.2018 05:15 5,8 C 2,1 C 76 % 90 % 1022,9 hPa 0,0 l/m 4,8 km/h O-NO 67 0,6 C 2,1 C 9,7 km/h
12.12.2018 05:10 5,9 C 2,1 C 76 % 90 % 1022,9 hPa 0,0 l/m 3,2 km/h O 90 0,6 C 2,1 C 6,4 km/h
12.12.2018 05:05 5,8 C 2,1 C 76 % 90 % 1022,9 hPa 0,0 l/m 3,2 km/h O 90 0,6 C 2,1 C 4,8 km/h
12.12.2018 05:00 5,8 C 2,2 C 76 % 90 % 1023,0 hPa 0,0 l/m 0,0 km/h O 90 0,7 C 2,2 C 1,6 km/h
12.12.2018 04:55 5,8 C 2,2 C 76 % 90 % 1022,9 hPa 0,0 l/m 0,0 km/h O 90 0,7 C 2,2 C 1,6 km/h
12.12.2018 04:50 5,9 C 2,2 C 76 % 90 % 1022,8 hPa 0,0 l/m 0,0 km/h O 90 0,7 C 2,2 C 1,6 km/h
12.12.2018 04:45 5,9 C 2,2 C 76 % 90 % 1022,9 hPa 0,0 l/m 1,6 km/h O 90 0,7 C 2,2 C 3,2 km/h
12.12.2018 04:40 5,9 C 2,2 C 76 % 90 % 1023,0 hPa 0,0 l/m 1,6 km/h O 90 0,7 C 2,2 C 3,2 km/h
12.12.2018 04:35 5,9 C 2,2 C 76 % 90 % 1023,0 hPa 0,0 l/m 3,2 km/h O 90 0,7 C 2,2 C 4,8 km/h
12.12.2018 04:30 5,9 C 2,3 C 76 % 90 % 1022,8 hPa 0,0 l/m 3,2 km/h O 90 0,8 C 2,3 C 6,4 km/h
12.12.2018 04:25 5,9 C 2,3 C 76 % 89 % 1023,0 hPa 0,0 l/m 4,8 km/h O-NO 67 0,7 C 2,3 C 6,4 km/h
12.12.2018 04:20 5,9 C 2,3 C 76 % 89 % 1023,0 hPa 0,0 l/m 4,8 km/h O-NO 67 0,7 C 2,3 C 8,0 km/h
12.12.2018 04:15 5,9 C 2,4 C 76 % 89 % 1023,0 hPa 0,0 l/m 4,8 km/h NO 45 0,8 C 2,4 C 8,0 km/h
12.12.2018 04:10 5,9 C 2,4 C 76 % 88 % 1023,0 hPa 0,0 l/m 4,8 km/h NO 45 0,6 C 2,4 C 8,0 km/h
12.12.2018 04:05 5,9 C 2,6 C 76 % 87 % 1022,9 hPa 0,0 l/m 4,8 km/h NW 315 0,7 C 2,6 C 8,0 km/h
12.12.2018 04:00 5,9 C 2,6 C 76 % 87 % 1022,9 hPa 0,0 l/m 3,2 km/h NW 315 0,7 C 2,6 C 4,8 km/h
12.12.2018 03:55 5,9 C 2,7 C 76 % 87 % 1022,8 hPa 0,0 l/m 1,6 km/h NW 315 0,8 C 2,7 C 8,0 km/h
12.12.2018 03:50 6,0 C 2,6 C 76 % 87 % 1022,7 hPa 0,0 l/m 3,2 km/h NW 315 0,7 C 2,6 C 6,4 km/h
12.12.2018 03:45 5,9 C 2,7 C 76 % 87 % 1022,7 hPa 0,0 l/m 4,8 km/h N-NW 337 0,8 C 2,7 C 6,4 km/h
12.12.2018 03:40 5,9 C 2,6 C 76 % 87 % 1022,6 hPa 0,0 l/m 3,2 km/h N-NW 337 0,7 C 2,6 C 4,8 km/h
12.12.2018 03:35 5,9 C 2,7 C 76 % 87 % 1022,8 hPa 0,0 l/m 1,6 km/h N-NW 337 0,8 C 2,7 C 4,8 km/h
12.12.2018 03:30 5,9 C 2,7 C 76 % 86 % 1022,8 hPa 0,0 l/m 1,6 km/h N-NW 337 0,6 C 2,7 C 6,4 km/h
12.12.2018 03:25 5,9 C 2,7 C 76 % 86 % 1022,8 hPa 0,0 l/m 0,0 km/h NW 315 0,6 C 2,7 C 4,8 km/h
12.12.2018 03:20 5,9 C 2,7 C 76 % 86 % 1022,8 hPa 0,0 l/m 3,2 km/h N-NW 337 0,6 C 2,7 C 9,7 km/h
12.12.2018 03:15 5,9 C 2,7 C 76 % 86 % 1022,7 hPa 0,0 l/m 8,0 km/h W-NW 292 0,6 C 1,2 C 14,5 km/h
12.12.2018 03:10 5,9 C 2,7 C 76 % 86 % 1022,8 hPa 0,0 l/m 4,8 km/h W-NW 292 0,6 C 2,7 C 9,7 km/h
12.12.2018 03:05 5,9 C 2,7 C 76 % 85 % 1022,6 hPa 0,0 l/m 3,2 km/h W-NW 292 0,4 C 2,7 C 6,4 km/h
12.12.2018 03:00 5,9 C 2,8 C 76 % 85 % 1022,7 hPa 0,0 l/m 1,6 km/h W-NW 292 0,5 C 2,8 C 4,8 km/h
12.12.2018 02:55 5,9 C 2,8 C 76 % 85 % 1022,7 hPa 0,0 l/m 1,6 km/h W-NW 292 0,5 C 2,8 C 6,4 km/h
12.12.2018 02:50 5,9 C 2,8 C 76 % 85 % 1022,7 hPa 0,0 l/m 4,8 km/h W-NW 292 0,5 C 2,8 C 6,4 km/h
12.12.2018 02:45 5,9 C 2,8 C 76 % 86 % 1022,6 hPa 0,0 l/m 4,8 km/h W-NW 292 0,7 C 2,8 C 9,7 km/h
12.12.2018 02:40 5,9 C 2,8 C 76 % 85 % 1022,6 hPa 0,0 l/m 6,4 km/h W-NW 292 0,5 C 2,8 C 11,3 km/h
12.12.2018 02:35 5,9 C 2,8 C 76 % 85 % 1022,5 hPa 0,0 l/m 6,4 km/h W-NW 292 0,5 C 2,8 C 9,7 km/h
12.12.2018 02:30 5,9 C 2,8 C 76 % 85 % 1022,5 hPa 0,0 l/m 9,7 km/h W-NW 292 0,5 C -0,1 C 12,9 km/h
12.12.2018 02:25 5,9 C 2,8 C 76 % 85 % 1022,4 hPa 0,0 l/m 11,3 km/h W-NW 292 0,5 C -1,3 C 12,9 km/h
12.12.2018 02:20 5,9 C 2,8 C 76 % 85 % 1022,4 hPa 0,0 l/m 11,3 km/h W-NW 292 0,5 C -1,3 C 14,5 km/h
12.12.2018 02:15 5,9 C 2,8 C 76 % 86 % 1022,5 hPa 0,0 l/m 9,7 km/h W-NW 292 0,7 C -0,1 C 12,9 km/h
12.12.2018 02:10 5,9 C 2,8 C 76 % 86 % 1022,6 hPa 0,0 l/m 11,3 km/h W-NW 292 0,7 C -1,3 C 14,5 km/h
12.12.2018 02:05 5,9 C 2,7 C 76 % 86 % 1022,5 hPa 0,0 l/m 11,3 km/h W-NW 292 0,6 C -1,4 C 12,9 km/h
12.12.2018 02:00 5,9 C 2,8 C 76 % 86 % 1022,6 hPa 0,0 l/m 9,7 km/h W-NW 292 0,7 C -0,1 C 12,9 km/h
12.12.2018 01:55 5,9 C 2,8 C 76 % 86 % 1022,5 hPa 0,0 l/m 8,0 km/h W 270 0,7 C 1,3 C 12,9 km/h
12.12.2018 01:50 5,9 C 2,8 C 76 % 86 % 1022,5 hPa 0,0 l/m 4,8 km/h NW 315 0,7 C 2,8 C 8,0 km/h
12.12.2018 01:45 5,9 C 2,9 C 76 % 86 % 1022,5 hPa 0,0 l/m 4,8 km/h W 270 0,8 C 2,9 C 11,3 km/h
12.12.2018 01:40 5,9 C 2,9 C 77 % 86 % 1022,4 hPa 0,0 l/m 3,2 km/h W 270 0,8 C 2,9 C 6,4 km/h
12.12.2018 01:35 5,9 C 2,9 C 76 % 86 % 1022,4 hPa 0,0 l/m 1,6 km/h W 270 0,8 C 2,9 C 4,8 km/h
12.12.2018 01:30 5,9 C 2,9 C 77 % 86 % 1022,4 hPa 0,0 l/m 1,6 km/h W 270 0,8 C 2,9 C 6,4 km/h
12.12.2018 01:25 5,9 C 2,9 C 76 % 86 % 1022,4 hPa 0,0 l/m 3,2 km/h W 270 0,8 C 2,9 C 4,8 km/h
12.12.2018 01:20 5,9 C 3,0 C 76 % 86 % 1022,4 hPa 0,0 l/m 4,8 km/h W 270 0,9 C 3,0 C 8,0 km/h
12.12.2018 01:15 5,9 C 3,0 C 76 % 86 % 1022,3 hPa 0,0 l/m 3,2 km/h W-SW 247 0,9 C 3,0 C 8,0 km/h
12.12.2018 01:10 5,9 C 3,0 C 76 % 86 % 1022,4 hPa 0,0 l/m 3,2 km/h W 270 0,9 C 3,0 C 6,4 km/h
12.12.2018 01:05 5,9 C 2,9 C 76 % 86 % 1022,3 hPa 0,0 l/m 3,2 km/h W 270 0,8 C 2,9 C 11,3 km/h
12.12.2018 01:00 6,0 C 2,9 C 76 % 87 % 1022,3 hPa 0,0 l/m 4,8 km/h W-SW 247 1,0 C 2,9 C 8,0 km/h
12.12.2018 00:55 6,0 C 2,9 C 76 % 87 % 1022,3 hPa 0,0 l/m 3,2 km/h W-NW 292 1,0 C 2,9 C 4,8 km/h
12.12.2018 00:50 6,0 C 2,9 C 76 % 87 % 1022,4 hPa 0,0 l/m 1,6 km/h W-NW 292 1,0 C 2,9 C 6,4 km/h
12.12.2018 00:45 6,0 C 2,8 C 76 % 87 % 1022,3 hPa 0,0 l/m 3,2 km/h N-NW 337 0,9 C 2,8 C 8,0 km/h
12.12.2018 00:40 5,9 C 2,8 C 76 % 87 % 1022,3 hPa 0,0 l/m 6,4 km/h N-NW 337 0,9 C 2,8 C 12,9 km/h
12.12.2018 00:35 5,9 C 2,8 C 76 % 87 % 1022,2 hPa 0,0 l/m 9,7 km/h W-NW 292 0,9 C -0,1 C 17,7 km/h
12.12.2018 00:30 5,9 C 2,9 C 76 % 87 % 1022,1 hPa 0,0 l/m 14,5 km/h W-NW 292 1,0 C -3,2 C 19,3 km/h
12.12.2018 00:25 6,0 C 2,9 C 76 % 87 % 1022,1 hPa 0,0 l/m 14,5 km/h W 270 1,0 C -3,2 C 17,7 km/h
12.12.2018 00:20 6,0 C 3,0 C 76 % 87 % 1022,2 hPa 0,0 l/m 12,9 km/h W 270 1,1 C -2,1 C 16,1 km/h
12.12.2018 00:15 6,0 C 3,1 C 76 % 87 % 1022,1 hPa 0,0 l/m 11,3 km/h W 270 1,2 C -1,0 C 14,5 km/h
12.12.2018 00:10 6,0 C 3,1 C 76 % 87 % 1022,2 hPa 0,0 l/m 11,3 km/h W 270 1,2 C -1,0 C 16,1 km/h
12.12.2018 00:05 6,0 C 3,1 C 76 % 87 % 1022,3 hPa 0,0 l/m 11,3 km/h W-NW 292 1,2 C -1,0 C 14,5 km/h
12.12.2018 00:00 6,1 C 3,1 C 76 % 87 % 1022,4 hPa 0,0 l/m 9,7 km/h W-NW 292 1,2 C 0,2 C 12,9 km/h
11.12.2018 23:55 6,1 C 3,1 C 76 % 87 % 1022,2 hPa 0,0 l/m 9,7 km/h W-NW 292 1,2 C 0,2 C 12,9 km/h
11.12.2018 23:50 6,1 C 3,1 C 76 % 87 % 1022,2 hPa 0,0 l/m 11,3 km/h W-NW 292 1,2 C -1,0 C 12,9 km/h
11.12.2018 23:45 6,1 C 3,1 C 76 % 87 % 1022,2 hPa 0,0 l/m 11,3 km/h W-NW 292 1,2 C -1,0 C 14,5 km/h
11.12.2018 23:40 6,1 C 3,0 C 76 % 87 % 1022,2 hPa 0,0 l/m 6,4 km/h W 270 1,1 C 3,0 C 9,7 km/h
11.12.2018 23:35 6,1 C 2,9 C 76 % 87 % 1022,2 hPa 0,0 l/m 6,4 km/h W 270 1,0 C 2,9 C 11,3 km/h
11.12.2018 23:30 6,1 C 2,9 C 76 % 88 % 1022,2 hPa 0,0 l/m 8,0 km/h W-NW 292 1,1 C 1,4 C 12,9 km/h
11.12.2018 23:25 6,1 C 2,9 C 76 % 88 % 1022,3 hPa 0,0 l/m 8,0 km/h W 270 1,1 C 1,4 C 11,3 km/h
11.12.2018 23:20 6,1 C 2,9 C 76 % 88 % 1022,3 hPa 0,0 l/m 8,0 km/h W 270 1,1 C 1,4 C 11,3 km/h
11.12.2018 23:15 6,1 C 2,9 C 76 % 88 % 1022,2 hPa 0,0 l/m 4,8 km/h W 270 1,1 C 2,9 C 9,7 km/h
11.12.2018 23:10 6,1 C 2,9 C 76 % 88 % 1022,2 hPa 0,0 l/m 4,8 km/h W 270 1,1 C 2,9 C 9,7 km/h
11.12.2018 23:05 6,1 C 3,0 C 76 % 88 % 1022,1 hPa 0,0 l/m 4,8 km/h W 270 1,2 C 3,0 C 8,0 km/h
11.12.2018 23:00 6,1 C 3,0 C 76 % 87 % 1022,0 hPa 0,0 l/m 4,8 km/h W-SW 247 1,1 C 3,0 C 8,0 km/h
11.12.2018 22:55 6,1 C 3,1 C 76 % 87 % 1022,1 hPa 0,0 l/m 6,4 km/h W-SW 247 1,2 C 3,1 C 8,0 km/h
11.12.2018 22:50 6,1 C 3,1 C 76 % 87 % 1022,2 hPa 0,0 l/m 8,0 km/h W-SW 247 1,2 C 1,6 C 11,3 km/h
11.12.2018 22:45 6,1 C 3,1 C 76 % 87 % 1022,0 hPa 0,0 l/m 6,4 km/h W-SW 247 1,2 C 3,1 C 8,0 km/h
11.12.2018 22:40 6,1 C 3,0 C 76 % 87 % 1022,2 hPa 0,0 l/m 4,8 km/h NW 315 1,1 C 3,0 C 6,4 km/h
11.12.2018 22:35 6,0 C 2,9 C 76 % 88 % 1022,1 hPa 0,0 l/m 3,2 km/h NW 315 1,1 C 2,9 C 4,8 km/h
11.12.2018 22:30 6,1 C 2,9 C 77 % 88 % 1022,3 hPa 0,0 l/m 3,2 km/h NW 315 1,1 C 2,9 C 4,8 km/h
11.12.2018 22:25 6,1 C 2,9 C 76 % 88 % 1022,3 hPa 0,0 l/m 3,2 km/h NW 315 1,1 C 2,9 C 4,8 km/h
11.12.2018 22:20 6,0 C 2,9 C 76 % 88 % 1022,2 hPa 0,0 l/m 0,0 km/h NW 315 1,1 C 2,9 C 1,6 km/h
11.12.2018 22:15 6,0 C 2,9 C 76 % 88 % 1022,1 hPa 0,0 l/m 0,0 km/h NW 315 1,1 C 2,9 C 3,2 km/h
11.12.2018 22:10 6,0 C 3,0 C 76 % 87 % 1022,1 hPa 0,0 l/m 1,6 km/h NW 315 1,1 C 3,0 C 3,2 km/h
11.12.2018 22:05 6,0 C 3,1 C 76 % 87 % 1022,1 hPa 0,0 l/m 1,6 km/h NW 315 1,2 C 3,1 C 6,4 km/h
11.12.2018 22:00 5,9 C 3,1 C 76 % 87 % 1022,1 hPa 0,0 l/m 4,8 km/h W 270 1,2 C 3,1 C 9,7 km/h
11.12.2018 21:55 5,9 C 3,0 C 76 % 87 % 1022,1 hPa 0,0 l/m 8,0 km/h W-NW 292 1,1 C 1,5 C 12,9 km/h
11.12.2018 21:50 5,9 C 2,9 C 76 % 88 % 1021,9 hPa 0,0 l/m 6,4 km/h W-NW 292 1,1 C 2,9 C 11,3 km/h
11.12.2018 21:45 5,9 C 2,8 C 76 % 89 % 1022,0 hPa 0,0 l/m 4,8 km/h W-NW 292 1,2 C 2,8 C 9,7 km/h
11.12.2018 21:40 5,9 C 2,8 C 76 % 89 % 1022,0 hPa 0,0 l/m 6,4 km/h W 270 1,2 C 2,8 C 14,5 km/h
11.12.2018 21:35 6,0 C 2,7 C 76 % 89 % 1021,9 hPa 0,0 l/m 9,7 km/h W-SW 247 1,1 C -0,2 C 16,1 km/h
11.12.2018 21:30 5,9 C 2,6 C 76 % 89 % 1021,8 hPa 0,0 l/m 11,3 km/h SW 225 1,0 C -1,5 C 14,5 km/h
11.12.2018 21:25 6,0 C 2,6 C 76 % 89 % 1021,9 hPa 0,0 l/m 8,0 km/h SW 225 1,0 C 1,1 C 11,3 km/h
11.12.2018 21:20 6,0 C 2,6 C 76 % 90 % 1021,8 hPa 0,0 l/m 9,7 km/h SW 225 1,1 C -0,3 C 11,3 km/h
11.12.2018 21:15 6,0 C 2,6 C 76 % 89 % 1022,0 hPa 0,0 l/m 6,4 km/h SW 225 1,0 C 2,6 C 11,3 km/h
11.12.2018 21:10 6,0 C 2,6 C 76 % 89 % 1022,1 hPa 0,0 l/m 8,0 km/h SW 225 1,0 C 1,1 C 16,1 km/h
11.12.2018 21:05 6,0 C 2,6 C 76 % 89 % 1022,0 hPa 0,0 l/m 8,0 km/h SW 225 1,0 C 1,1 C 12,9 km/h
11.12.2018 21:00 6,0 C 2,7 C 76 % 89 % 1021,9 hPa 0,0 l/m 8,0 km/h SW 225 1,1 C 1,2 C 11,3 km/h
11.12.2018 20:55 6,0 C 2,6 C 76 % 89 % 1021,8 hPa 0,0 l/m 11,3 km/h W-SW 247 1,0 C -1,5 C 17,7 km/h
11.12.2018 20:50 6,0 C 2,6 C 76 % 89 % 1021,8 hPa 0,0 l/m 8,0 km/h W-SW 247 1,0 C 1,1 C 9,7 km/h
11.12.2018 20:45 6,1 C 2,7 C 76 % 89 % 1021,8 hPa 0,0 l/m 8,0 km/h W-SW 247 1,1 C 1,2 C 12,9 km/h
11.12.2018 20:40 6,1 C 2,7 C 76 % 89 % 1021,9 hPa 0,0 l/m 9,7 km/h SW 225 1,1 C -0,2 C 14,5 km/h
11.12.2018 20:35 6,1 C 2,6 C 76 % 90 % 1022,0 hPa 0,0 l/m 8,0 km/h SW 225 1,1 C 1,1 C 11,3 km/h
11.12.2018 20:30 6,1 C 2,6 C 76 % 90 % 1021,9 hPa 0,0 l/m 9,7 km/h SW 225 1,1 C -0,3 C 14,5 km/h
11.12.2018 20:25 6,1 C 2,5 C 76 % 90 % 1021,9 hPa 0,0 l/m 6,4 km/h SW 225 1,0 C 2,5 C 9,7 km/h
11.12.2018 20:20 6,1 C 2,4 C 76 % 90 % 1021,9 hPa 0,0 l/m 8,0 km/h SW 225 0,9 C 0,9 C 11,3 km/h
11.12.2018 20:15 6,1 C 2,5 C 76 % 90 % 1021,9 hPa 0,0 l/m 6,4 km/h SW 225 1,0 C 2,5 C 9,7 km/h
11.12.2018 20:10 6,1 C 2,4 C 76 % 90 % 1021,8 hPa 0,0 l/m 8,0 km/h S-SW 202 0,9 C 0,9 C 12,9 km/h
11.12.2018 20:05 6,1 C 2,5 C 76 % 90 % 1021,8 hPa 0,0 l/m 9,7 km/h S-SW 202 1,0 C -0,5 C 14,5 km/h
11.12.2018 20:00 6,1 C 2,6 C 76 % 90 % 1021,8 hPa 0,0 l/m 9,7 km/h S-SW 202 1,1 C -0,3 C 12,9 km/h
11.12.2018 19:55 6,1 C 2,6 C 76 % 90 % 1021,9 hPa 0,0 l/m 9,7 km/h S-SW 202 1,1 C -0,3 C 12,9 km/h
11.12.2018 19:50 6,1 C 2,6 C 76 % 89 % 1021,9 hPa 0,0 l/m 8,0 km/h S-SW 202 1,0 C 1,1 C 11,3 km/h
11.12.2018 19:45 6,1 C 2,7 C 76 % 89 % 1021,9 hPa 0,0 l/m 6,4 km/h SW 225 1,1 C 2,7 C 9,7 km/h
11.12.2018 19:40 6,1 C 2,7 C 75 % 89 % 1021,8 hPa 0,0 l/m 8,0 km/h SW 225 1,1 C 1,2 C 11,3 km/h
11.12.2018 19:35 6,1 C 2,7 C 75 % 89 % 1022,0 hPa 0,0 l/m 11,3 km/h SW 225 1,1 C -1,4 C 17,7 km/h
11.12.2018 19:30 6,1 C 2,7 C 75 % 89 % 1021,9 hPa 0,0 l/m 11,3 km/h SW 225 1,1 C -1,4 C 16,1 km/h
11.12.2018 19:25 6,1 C 2,7 C 75 % 89 % 1022,0 hPa 0,0 l/m 8,0 km/h SW 225 1,1 C 1,2 C 14,5 km/h
11.12.2018 19:20 6,1 C 2,8 C 75 % 88 % 1022,0 hPa 0,0 l/m 6,4 km/h W-SW 247 1,0 C 2,8 C 11,3 km/h
11.12.2018 19:15 6,1 C 2,8 C 75 % 88 % 1022,1 hPa 0,0 l/m 4,8 km/h W-SW 247 1,0 C 2,8 C 8,0 km/h
11.12.2018 19:10 6,1 C 2,8 C 75 % 88 % 1022,1 hPa 0,0 l/m 6,4 km/h W 270 1,0 C 2,8 C 11,3 km/h
11.12.2018 19:05 6,1 C 2,8 C 75 % 88 % 1022,0 hPa 0,0 l/m 11,3 km/h W 270 1,0 C -1,3 C 16,1 km/h
11.12.2018 19:00 6,1 C 2,8 C 74 % 88 % 1022,0 hPa 0,0 l/m 14,5 km/h W 270 1,0 C -3,3 C 19,3 km/h
11.12.2018 18:55 6,1 C 2,8 C 74 % 88 % 1022,0 hPa 0,0 l/m 16,1 km/h W 270 1,0 C -4,2 C 22,5 km/h
11.12.2018 18:50 6,2 C 2,8 C 74 % 88 % 1022,1 hPa 0,0 l/m 16,1 km/h W 270 1,0 C -4,2 C 22,5 km/h
11.12.2018 18:45 6,1 C 2,8 C 74 % 88 % 1022,0 hPa 0,0 l/m 14,5 km/h W 270 1,0 C -3,3 C 19,3 km/h
11.12.2018 18:40 6,2 C 2,8 C 74 % 88 % 1022,0 hPa 0,0 l/m 14,5 km/h W 270 1,0 C -3,3 C 22,5 km/h
11.12.2018 18:35 6,3 C 2,8 C 74 % 88 % 1022,0 hPa 0,0 l/m 17,7 km/h W 270 1,0 C -5,0 C 24,1 km/h
11.12.2018 18:30 6,3 C 2,8 C 74 % 87 % 1022,0 hPa 0,0 l/m 12,9 km/h W 270 0,9 C -2,4 C 19,3 km/h
11.12.2018 18:25 6,3 C 2,9 C 74 % 87 % 1022,0 hPa 0,0 l/m 11,3 km/h W-NW 292 1,0 C -1,2 C 14,5 km/h
11.12.2018 18:20 6,3 C 2,9 C 74 % 86 % 1022,1 hPa 0,0 l/m 11,3 km/h W-NW 292 0,8 C -1,2 C 14,5 km/h
11.12.2018 18:15 6,3 C 2,9 C 74 % 87 % 1022,1 hPa 0,0 l/m 8,0 km/h W 270 1,0 C 1,4 C 11,3 km/h
11.12.2018 18:10 6,3 C 2,9 C 74 % 86 % 1022,1 hPa 0,0 l/m 9,7 km/h W 270 0,8 C -0,0 C 12,9 km/h
11.12.2018 18:05 6,3 C 2,8 C 74 % 87 % 1022,0 hPa 0,0 l/m 9,7 km/h W 270 0,9 C -0,1 C 12,9 km/h
11.12.2018 18:00 6,3 C 2,8 C 74 % 87 % 1022,0 hPa 0,0 l/m 11,3 km/h W 270 0,9 C -1,3 C 12,9 km/h
11.12.2018 17:55 6,3 C 2,9 C 74 % 87 % 1022,0 hPa 0,0 l/m 11,3 km/h W 270 1,0 C -1,2 C 16,1 km/h
11.12.2018 17:50 6,3 C 2,9 C 74 % 87 % 1022,0 hPa 0,0 l/m 12,9 km/h W 270 1,0 C -2,2 C 17,7 km/h
11.12.2018 17:45 6,3 C 2,9 C 74 % 87 % 1021,8 hPa 0,0 l/m 12,9 km/h W 270 1,0 C -2,2 C 17,7 km/h
11.12.2018 17:40 6,3 C 2,9 C 74 % 87 % 1021,9 hPa 0,0 l/m 14,5 km/h W 270 1,0 C -3,2 C 19,3 km/h
11.12.2018 17:35 6,4 C 2,8 C 74 % 87 % 1021,9 hPa 0,0 l/m 12,9 km/h W 270 0,9 C -2,4 C 17,7 km/h
11.12.2018 17:30 6,4 C 2,8 C 74 % 87 % 1021,8 hPa 0,0 l/m 11,3 km/h W 270 0,9 C -1,3 C 14,5 km/h
11.12.2018 17:25 6,4 C 2,8 C 73 % 87 % 1021,9 hPa 0,0 l/m 11,3 km/h W 270 0,9 C -1,3 C 14,5 km/h
11.12.2018 17:20 6,4 C 2,8 C 74 % 87 % 1021,9 hPa 0,0 l/m 12,9 km/h W 270 0,9 C -2,4 C 17,7 km/h
11.12.2018 17:15 6,4 C 2,7 C 74 % 87 % 1021,6 hPa 0,0 l/m 9,7 km/h W-SW 247 0,8 C -0,2 C 12,9 km/h
11.12.2018 17:10 6,4 C 2,7 C 74 % 87 % 1021,6 hPa 0,0 l/m 9,7 km/h W-SW 247 0,8 C -0,2 C 12,9 km/h
11.12.2018 17:05 6,4 C 2,7 C 73 % 87 % 1021,8 hPa 0,0 l/m 8,0 km/h W 270 0,8 C 1,2 C 11,3 km/h
11.12.2018 17:00 6,4 C 2,7 C 73 % 87 % 1021,9 hPa 0,0 l/m 8,0 km/h W 270 0,8 C 1,2 C 11,3 km/h
11.12.2018 16:55 6,4 C 2,7 C 73 % 87 % 1021,7 hPa 0,0 l/m 6,4 km/h W 270 0,8 C 2,7 C 8,0 km/h
11.12.2018 16:50 6,5 C 2,6 C 73 % 88 % 1021,6 hPa 0,0 l/m 4,8 km/h W-SW 247 0,8 C 2,6 C 6,4 km/h
11.12.2018 16:45 6,5 C 2,6 C 73 % 88 % 1021,6 hPa 0,0 l/m 3,2 km/h W-SW 247 0,8 C 2,6 C 6,4 km/h
11.12.2018 16:40 6,6 C 2,6 C 73 % 88 % 1021,6 hPa 0,0 l/m 4,8 km/h W-SW 247 0,8 C 2,6 C 11,3 km/h
11.12.2018 16:35 6,6 C 2,6 C 73 % 88 % 1021,4 hPa 0,0 l/m 4,8 km/h W-SW 247 0,8 C 2,6 C 9,7 km/h
11.12.2018 16:30 6,6 C 2,4 C 72 % 88 % 1021,3 hPa 0,0 l/m 6,4 km/h W-SW 247 0,6 C 2,4 C 11,3 km/h
11.12.2018 16:25 6,7 C 2,4 C 72 % 88 % 1021,0 hPa 0,0 l/m 4,8 km/h W 270 0,6 C 2,4 C 9,7 km/h
11.12.2018 16:20 6,7 C 2,4 C 72 % 87 % 1021,1 hPa 0,0 l/m 8,0 km/h W 270 0,5 C 0,9 C 14,5 km/h
11.12.2018 16:15 6,8 C 2,6 C 71 % 87 % 1021,3 hPa 0,0 l/m 11,3 km/h W-SW 247 0,7 C -1,5 C 16,1 km/h
11.12.2018 16:10 6,9 C 2,6 C 71 % 87 % 1021,2 hPa 0,0 l/m 12,9 km/h W 270 0,7 C -2,6 C 17,7 km/h
11.12.2018 16:05 7,0 C 2,6 C 71 % 87 % 1021,2 hPa 0,0 l/m 8,0 km/h W 270 0,7 C 1,1 C 12,9 km/h
11.12.2018 16:00 7,2 C 2,7 C 70 % 87 % 1021,3 hPa 0,0 l/m 9,7 km/h W 270 0,8 C -0,2 C 17,7 km/h
11.12.2018 15:55 7,3 C 2,7 C 70 % 86 % 1021,4 hPa 0,0 l/m 9,7 km/h W 270 0,6 C -0,2 C 14,5 km/h
11.12.2018 15:50 7,4 C 2,8 C 69 % 86 % 1021,4 hPa 0,0 l/m 9,7 km/h W 270 0,7 C -0,1 C 14,5 km/h
11.12.2018 15:45 7,6 C 2,9 C 69 % 85 % 1021,4 hPa 0,0 l/m 12,9 km/h W 270 0,6 C -2,2 C 17,7 km/h
11.12.2018 15:40 7,8 C 2,9 C 68 % 85 % 1021,3 hPa 0,0 l/m 11,3 km/h W 270 0,6 C -1,2 C 14,5 km/h
11.12.2018 15:35 8,0 C 3,0 C 67 % 85 % 1021,3 hPa 0,0 l/m 9,7 km/h W 270 0,7 C 0,1 C 16,1 km/h
11.12.2018 15:30 8,2 C 3,1 C 66 % 85 % 1021,1 hPa 0,0 l/m 12,9 km/h W 270 0,8 C -2,0 C 19,3 km/h
11.12.2018 15:25 8,5 C 3,1 C 65 % 85 % 1021,1 hPa 0,0 l/m 14,5 km/h W 270 0,8 C -2,9 C 17,7 km/h
11.12.2018 15:20 8,9 C 3,1 C 64 % 85 % 1021,1 hPa 0,0 l/m 16,1 km/h W 270 0,8 C -3,8 C 22,5 km/h
11.12.2018 15:15 9,3 C 3,0 C 63 % 85 % 1021,2 hPa 0,0 l/m 14,5 km/h W 270 0,7 C -3,1 C 19,3 km/h
11.12.2018 15:10 9,9 C 3,0 C 62 % 85 % 1021,4 hPa 0,0 l/m 16,1 km/h W 270 0,7 C -3,9 C 20,9 km/h
11.12.2018 15:05 10,5 C 3,0 C 61 % 85 % 1021,3 hPa 0,0 l/m 14,5 km/h W 270 0,7 C -3,1 C 20,9 km/h
11.12.2018 15:00 11,2 C 3,1 C 59 % 85 % 1021,3 hPa 0,0 l/m 16,1 km/h W 270 0,8 C -3,8 C 22,5 km/h
11.12.2018 14:55 11,7 C 3,2 C 59 % 84 % 1021,3 hPa 0,0 l/m 14,5 km/h W 270 0,8 C -2,8 C 17,7 km/h
11.12.2018 14:50 11,8 C 3,2 C 59 % 85 % 1021,4 hPa 0,0 l/m 14,5 km/h W 270 0,9 C -2,8 C 19,3 km/h
11.12.2018 14:45 11,6 C 3,3 C 59 % 84 % 1021,4 hPa 0,0 l/m 14,5 km/h W 270 0,9 C -2,7 C 22,5 km/h
11.12.2018 14:40 11,2 C 3,3 C 61 % 84 % 1021,3 hPa 0,0 l/m 16,1 km/h W 270 0,9 C -3,6 C 19,3 km/h
11.12.2018 14:35 10,4 C 3,3 C 63 % 84 % 1021,2 hPa 0,0 l/m 19,3 km/h W 270 0,9 C -5,1 C 22,5 km/h
11.12.2018 14:30 9,2 C 3,3 C 66 % 84 % 1021,1 hPa 0,0 l/m 16,1 km/h W 270 0,9 C -3,6 C 20,9 km/h
11.12.2018 14:25 8,2 C 3,3 C 68 % 84 % 1021,3 hPa 0,0 l/m 16,1 km/h W 270 0,9 C -3,6 C 20,9 km/h
11.12.2018 14:20 8,0 C 3,3 C 68 % 84 % 1021,5 hPa 0,0 l/m 14,5 km/h W 270 0,9 C -2,7 C 19,3 km/h
11.12.2018 14:15 8,1 C 3,4 C 67 % 84 % 1021,3 hPa 0,0 l/m 14,5 km/h W 270 1,0 C -2,6 C 20,9 km/h
11.12.2018 14:10 8,2 C 3,4 C 67 % 83 % 1021,4 hPa 0,0 l/m 16,1 km/h W 270 0,8 C -3,4 C 20,9 km/h
11.12.2018 14:05 8,2 C 3,6 C 66 % 83 % 1021,3 hPa 0,0 l/m 17,7 km/h W 270 1,0 C -4,0 C 24,1 km/h
11.12.2018 14:00 8,3 C 3,7 C 66 % 83 % 1021,2 hPa 0,0 l/m 17,7 km/h W-NW 292 1,1 C -3,8 C 24,1 km/h
11.12.2018 13:55 8,4 C 3,8 C 65 % 82 % 1021,2 hPa 0,0 l/m 19,3 km/h W-NW 292 1,0 C -4,4 C 29,0 km/h
11.12.2018 13:50 8,6 C 3,9 C 65 % 82 % 1021,1 hPa 0,0 l/m 25,7 km/h W-NW 292 1,1 C -6,7 C 33,8 km/h
11.12.2018 13:45 8,8 C 3,9 C 65 % 82 % 1021,1 hPa 0,0 l/m 20,9 km/h W-NW 292 1,1 C -5,0 C 32,2 km/h
11.12.2018 13:40 8,9 C 3,9 C 65 % 82 % 1021,1 hPa 0,0 l/m 17,7 km/h W-NW 292 1,1 C -3,6 C 24,1 km/h
11.12.2018 13:35 9,1 C 4,0 C 65 % 82 % 1021,0 hPa 0,0 l/m 22,5 km/h NW 315 1,2 C -5,4 C 33,8 km/h
11.12.2018 13:30 9,2 C 4,1 C 65 % 82 % 1021,1 hPa 0,0 l/m 16,1 km/h W-NW 292 1,3 C -2,6 C 25,7 km/h
11.12.2018 13:25 9,3 C 4,1 C 65 % 82 % 1021,1 hPa 0,0 l/m 16,1 km/h W 270 1,3 C -2,6 C 24,1 km/h
11.12.2018 13:20 9,3 C 4,1 C 65 % 82 % 1021,1 hPa 0,0 l/m 16,1 km/h W 270 1,3 C -2,6 C 25,7 km/h
11.12.2018 13:15 9,3 C 4,1 C 65 % 81 % 1021,0 hPa 0,0 l/m 16,1 km/h W 270 1,1 C -2,6 C 25,7 km/h
11.12.2018 13:10 9,4 C 4,1 C 64 % 81 % 1021,0 hPa 0,0 l/m 17,7 km/h W-NW 292 1,1 C -3,3 C 27,4 km/h
11.12.2018 13:05 9,3 C 4,1 C 64 % 81 % 1020,9 hPa 0,0 l/m 20,9 km/h W 270 1,1 C -4,7 C 30,6 km/h
11.12.2018 13:00 9,3 C 4,1 C 65 % 80 % 1021,1 hPa 0,0 l/m 17,7 km/h W 270 1,0 C -3,3 C 29,0 km/h
11.12.2018 12:55 9,2 C 4,1 C 65 % 80 % 1021,1 hPa 0,0 l/m 16,1 km/h W 270 1,0 C -2,6 C 22,5 km/h
11.12.2018 12:50 9,2 C 4,1 C 64 % 80 % 1021,0 hPa 0,0 l/m 17,7 km/h W 270 1,0 C -3,3 C 24,1 km/h
11.12.2018 12:45 9,2 C 4,0 C 64 % 79 % 1021,1 hPa 0,0 l/m 17,7 km/h W 270 0,7 C -3,5 C 29,0 km/h
11.12.2018 12:40 9,3 C 4,1 C 64 % 80 % 1021,1 hPa 0,0 l/m 20,9 km/h W-NW 292 1,0 C -4,7 C 30,6 km/h
11.12.2018 12:35 9,5 C 4,0 C 64 % 80 % 1021,2 hPa 0,0 l/m 17,7 km/h W-NW 292 0,9 C -3,5 C 25,7 km/h
11.12.2018 12:30 9,7 C 3,9 C 64 % 79 % 1021,3 hPa 0,0 l/m 24,1 km/h W-NW 292 0,6 C -6,1 C 35,4 km/h
11.12.2018 12:25 9,9 C 4,0 C 64 % 80 % 1021,4 hPa 0,0 l/m 19,3 km/h W-NW 292 0,9 C -4,2 C 32,2 km/h
11.12.2018 12:20 10,0 C 4,1 C 64 % 81 % 1021,4 hPa 0,2 l/m 11,3 km/h W-NW 292 1,1 C 0,2 C 17,7 km/h
11.12.2018 12:15 10,0 C 4,1 C 64 % 81 % 1021,4 hPa 0,0 l/m 11,3 km/h W-NW 292 1,1 C 0,2 C 17,7 km/h
11.12.2018 12:10 9,9 C 3,9 C 65 % 80 % 1021,3 hPa 0,0 l/m 17,7 km/h W-NW 292 0,8 C -3,6 C 22,5 km/h
11.12.2018 12:05 10,0 C 3,9 C 65 % 82 % 1021,3 hPa 0,0 l/m 16,1 km/h W 270 1,1 C -2,8 C 22,5 km/h
11.12.2018 12:00 10,1 C 3,9 C 65 % 81 % 1021,4 hPa 0,0 l/m 16,1 km/h W 270 0,9 C -2,8 C 25,7 km/h
11.12.2018 11:55 10,1 C 3,9 C 65 % 83 % 1021,4 hPa 0,0 l/m 14,5 km/h W 270 1,3 C -2,0 C 20,9 km/h
11.12.2018 11:50 10,2 C 3,9 C 65 % 83 % 1021,4 hPa 0,0 l/m 19,3 km/h W-NW 292 1,3 C -4,3 C 33,8 km/h
11.12.2018 11:45 10,1 C 3,8 C 65 % 84 % 1021,4 hPa 0,0 l/m 17,7 km/h W 270 1,4 C -3,7 C 22,5 km/h
11.12.2018 11:40 10,1 C 3,7 C 65 % 83 % 1021,4 hPa 0,0 l/m 19,3 km/h W 270 1,1 C -4,6 C 27,4 km/h
11.12.2018 11:35 10,2 C 3,8 C 65 % 84 % 1021,4 hPa 0,0 l/m 19,3 km/h W 270 1,4 C -4,4 C 27,4 km/h
11.12.2018 11:30 10,4 C 3,8 C 65 % 83 % 1021,3 hPa 0,0 l/m 20,9 km/h W 270 1,2 C -5,1 C 27,4 km/h
11.12.2018 11:25 10,6 C 3,8 C 65 % 84 % 1021,4 hPa 0,0 l/m 19,3 km/h W 270 1,4 C -4,4 C 30,6 km/h
11.12.2018 11:20 10,6 C 3,7 C 65 % 84 % 1021,4 hPa 0,0 l/m 17,7 km/h W 270 1,3 C -3,8 C 30,6 km/h
11.12.2018 11:15 10,6 C 3,6 C 65 % 85 % 1021,3 hPa 0,0 l/m 14,5 km/h W 270 1,3 C -2,3 C 20,9 km/h
11.12.2018 11:10 10,7 C 3,4 C 65 % 85 % 1021,4 hPa 0,0 l/m 14,5 km/h W 270 1,1 C -2,6 C 19,3 km/h
11.12.2018 11:05 10,9 C 3,4 C 65 % 86 % 1021,4 hPa 0,0 l/m 16,1 km/h W 270 1,3 C -3,4 C 25,7 km/h
11.12.2018 11:00 10,8 C 3,4 C 66 % 86 % 1021,4 hPa 0,0 l/m 16,1 km/h W-NW 292 1,3 C -3,4 C 25,7 km/h
11.12.2018 10:55 10,6 C 3,3 C 67 % 87 % 1021,4 hPa 0,0 l/m 17,7 km/h W 270 1,3 C -4,3 C 29,0 km/h
11.12.2018 10:50 10,2 C 3,3 C 67 % 87 % 1021,4 hPa 0,0 l/m 19,3 km/h W 270 1,3 C -5,1 C 27,4 km/h
11.12.2018 10:45 9,8 C 3,2 C 68 % 88 % 1021,4 hPa 0,0 l/m 17,7 km/h W 270 1,4 C -4,5 C 24,1 km/h
11.12.2018 10:40 9,7 C 3,2 C 68 % 87 % 1021,1 hPa 0,0 l/m 22,5 km/h W 270 1,2 C -6,5 C 30,6 km/h
11.12.2018 10:35 9,5 C 3,2 C 68 % 87 % 1021,2 hPa 0,0 l/m 24,1 km/h W 270 1,2 C -7,1 C 32,2 km/h
11.12.2018 10:30 9,2 C 3,1 C 68 % 88 % 1021,3 hPa 0,0 l/m 19,3 km/h W 270 1,3 C -5,3 C 27,4 km/h
11.12.2018 10:25 9,1 C 3,1 C 68 % 88 % 1021,1 hPa 0,0 l/m 22,5 km/h W 270 1,3 C -6,6 C 30,6 km/h
11.12.2018 10:20 9,1 C 3,1 C 68 % 88 % 1021,3 hPa 0,0 l/m 24,1 km/h W 270 1,3 C -7,2 C 35,4 km/h
11.12.2018 10:15 9,1 C 3,1 C 68 % 87 % 1021,2 hPa 0,0 l/m 25,7 km/h W 270 1,2 C -7,8 C 32,2 km/h
11.12.2018 10:10 9,1 C 3,2 C 68 % 87 % 1021,1 hPa 0,0 l/m 24,1 km/h W 270 1,2 C -7,1 C 33,8 km/h
11.12.2018 10:05 9,3 C 3,3 C 67 % 86 % 1021,2 hPa 0,0 l/m 20,9 km/h W 270 1,2 C -5,7 C 29,0 km/h
11.12.2018 10:00 9,4 C 3,4 C 67 % 85 % 1021,3 hPa 0,0 l/m 22,5 km/h W-NW 292 1,1 C -6,2 C 33,8 km/h
11.12.2018 09:55 9,3 C 3,7 C 68 % 84 % 1021,3 hPa 0,0 l/m 25,7 km/h W-NW 292 1,3 C -6,9 C 40,2 km/h
11.12.2018 09:50 9,0 C 3,8 C 68 % 83 % 1021,0 hPa 0,0 l/m 25,7 km/h W-NW 292 1,2 C -6,8 C 40,2 km/h
11.12.2018 09:45 8,9 C 3,8 C 69 % 83 % 1021,2 hPa 0,0 l/m 24,1 km/h W-NW 292 1,2 C -6,3 C 33,8 km/h
11.12.2018 09:40 8,8 C 3,7 C 69 % 83 % 1021,3 hPa 0,0 l/m 22,5 km/h W 270 1,1 C -5,8 C 30,6 km/h
11.12.2018 09:35 9,0 C 3,7 C 69 % 84 % 1021,3 hPa 0,0 l/m 19,3 km/h W 270 1,3 C -4,6 C 27,4 km/h
11.12.2018 09:30 9,1 C 3,6 C 69 % 84 % 1021,3 hPa 0,0 l/m 19,3 km/h W 270 1,2 C -4,7 C 24,1 km/h
11.12.2018 09:25 9,1 C 3,6 C 69 % 84 % 1021,2 hPa 0,0 l/m 17,7 km/h W 270 1,2 C -4,0 C 24,1 km/h
11.12.2018 09:20 9,0 C 3,5 C 70 % 85 % 1021,3 hPa 0,0 l/m 14,5 km/h W 270 1,2 C -2,5 C 20,9 km/h
11.12.2018 09:15 8,8 C 3,4 C 70 % 84 % 1021,2 hPa 0,0 l/m 17,7 km/h W-NW 292 1,0 C -4,2 C 25,7 km/h
11.12.2018 09:10 8,7 C 3,3 C 70 % 85 % 1021,1 hPa 0,0 l/m 16,1 km/h W 270 1,0 C -3,6 C 25,7 km/h
11.12.2018 09:05 8,8 C 3,2 C 70 % 85 % 1021,0 hPa 0,0 l/m 19,3 km/h W 270 0,9 C -5,2 C 24,1 km/h
11.12.2018 09:00 8,8 C 3,2 C 71 % 86 % 1020,9 hPa 0,0 l/m 16,1 km/h W 270 1,1 C -3,7 C 27,4 km/h
11.12.2018 08:55 8,6 C 3,1 C 72 % 87 % 1021,0 hPa 0,0 l/m 14,5 km/h W 270 1,2 C -2,9 C 19,3 km/h
11.12.2018 08:50 8,3 C 3,0 C 72 % 87 % 1021,1 hPa 0,0 l/m 17,7 km/h W 270 1,1 C -4,7 C 25,7 km/h
11.12.2018 08:45 8,0 C 2,9 C 73 % 87 % 1021,1 hPa 0,0 l/m 17,7 km/h W 270 1,0 C -4,8 C 25,7 km/h
11.12.2018 08:40 7,8 C 2,8 C 73 % 88 % 1021,1 hPa 0,0 l/m 17,7 km/h W 270 1,0 C -5,0 C 25,7 km/h
11.12.2018 08:35 7,6 C 2,7 C 73 % 88 % 1021,1 hPa 0,0 l/m 17,7 km/h W 270 0,9 C -5,1 C 30,6 km/h
11.12.2018 08:30 7,4 C 2,7 C 74 % 88 % 1021,0 hPa 0,0 l/m 17,7 km/h W-SW 247 0,9 C -5,1 C 22,5 km/h
11.12.2018 08:25 7,2 C 2,6 C 74 % 88 % 1021,1 hPa 0,0 l/m 17,7 km/h W 270 0,8 C -5,2 C 22,5 km/h
11.12.2018 08:20 7,2 C 2,6 C 73 % 88 % 1021,1 hPa 0,0 l/m 16,1 km/h W 270 0,8 C -4,4 C 22,5 km/h
11.12.2018 08:15 7,4 C 2,7 C 73 % 88 % 1021,3 hPa 0,0 l/m 16,1 km/h W 270 0,9 C -4,3 C 20,9 km/h
11.12.2018 08:10 7,8 C 2,7 C 72 % 88 % 1021,3 hPa 0,0 l/m 17,7 km/h W 270 0,9 C -5,1 C 20,9 km/h
11.12.2018 08:05 7,8 C 2,8 C 72 % 87 % 1021,1 hPa 0,0 l/m 22,5 km/h W-NW 292 0,9 C -7,0 C 29,0 km/h
11.12.2018 08:00 6,8 C 2,8 C 75 % 87 % 1021,0 hPa 0,0 l/m 20,9 km/h W-NW 292 0,9 C -6,4 C 27,4 km/h
_ Min-Zeit 07:00 06:00 14:45 12:30 09:00 - 22:15 - - 06:35 10:15 22:20
Minimum _ 5,6 C 2,0 C 59 % 79 % 1020,9 hPa - 0,0 km/h - - -0,4 C -7,8 C 1,6 km/h
_ Max-Zeit 14:50 13:00 22:30 19:55 07:10 12:20 09:50 - - 10:45 22:45 09:50
Maximum _ 11,8 C 4,2 C 77 % 90 % 1023,3 hPa 0,2 l/m 25,7 km/h
W-NW
- - 1,4 C 3,1 C 40,2 km/h
W-NW
Durchschnitt _ 7,1 C 2,9 C 73 % 86 % 1021,9 hPa #0,2 l/m 11,6 km/h W - 0,9 C -1,1 C 16,9 km/h